sensor_id;sensor_type;location;lat;lon;timestamp;temperature;humidity
10873;DHT22;34586;53.616;10.032;2024-03-29T00:00:26;7.90;99.90
10873;DHT22;34586;53.616;10.032;2024-03-29T00:02:52;7.80;99.90
10873;DHT22;34586;53.616;10.032;2024-03-29T00:05:17;7.80;99.90
10873;DHT22;34586;53.616;10.032;2024-03-29T00:07:43;7.80;99.90
10873;DHT22;34586;53.616;10.032;2024-03-29T00:10:09;7.80;99.90
10873;DHT22;34586;53.616;10.032;2024-03-29T00:12:35;7.70;99.90
10873;DHT22;34586;53.616;10.032;2024-03-29T00:15:00;7.70;99.90
10873;DHT22;34586;53.616;10.032;2024-03-29T00:17:26;7.70;99.90
10873;DHT22;34586;53.616;10.032;2024-03-29T00:19:51;7.70;99.90
10873;DHT22;34586;53.616;10.032;2024-03-29T00:22:17;7.70;99.90
10873;DHT22;34586;53.616;10.032;2024-03-29T00:24:43;7.60;99.90
10873;DHT22;34586;53.616;10.032;2024-03-29T00:27:08;7.70;99.90
10873;DHT22;34586;53.616;10.032;2024-03-29T00:29:34;7.60;99.90
10873;DHT22;34586;53.616;10.032;2024-03-29T00:32:00;7.60;99.90
10873;DHT22;34586;53.616;10.032;2024-03-29T00:34:25;7.50;99.90
10873;DHT22;34586;53.616;10.032;2024-03-29T00:36:51;7.60;99.90
10873;DHT22;34586;53.616;10.032;2024-03-29T00:39:18;7.40;99.90
10873;DHT22;34586;53.616;10.032;2024-03-29T00:41:43;7.40;99.90
10873;DHT22;34586;53.616;10.032;2024-03-29T00:44:09;7.40;99.90
10873;DHT22;34586;53.616;10.032;2024-03-29T00:46:34;7.30;99.90
10873;DHT22;34586;53.616;10.032;2024-03-29T00:49:00;7.40;99.90
10873;DHT22;34586;53.616;10.032;2024-03-29T00:51:25;7.30;99.90
10873;DHT22;34586;53.616;10.032;2024-03-29T00:53:51;7.20;99.90
10873;DHT22;34586;53.616;10.032;2024-03-29T00:56:17;7.20;99.90
10873;DHT22;34586;53.616;10.032;2024-03-29T00:58:43;7.20;99.90
10873;DHT22;34586;53.616;10.032;2024-03-29T01:01:08;7.10;99.90
10873;DHT22;34586;53.616;10.032;2024-03-29T01:03:34;7.10;99.90
10873;DHT22;34586;53.616;10.032;2024-03-29T01:05:59;7.20;99.90
10873;DHT22;34586;53.616;10.032;2024-03-29T01:08:25;7.20;99.90
10873;DHT22;34586;53.616;10.032;2024-03-29T01:10:51;7.20;99.90
10873;DHT22;34586;53.616;10.032;2024-03-29T01:13:16;7.10;99.90
10873;DHT22;34586;53.616;10.032;2024-03-29T01:15:42;7.10;99.90
10873;DHT22;34586;53.616;10.032;2024-03-29T01:18:07;7.10;99.90
10873;DHT22;34586;53.616;10.032;2024-03-29T01:20:33;7.00;99.90
10873;DHT22;34586;53.616;10.032;2024-03-29T01:22:59;7.00;99.90
10873;DHT22;34586;53.616;10.032;2024-03-29T01:25:25;6.90;99.90
10873;DHT22;34586;53.616;10.032;2024-03-29T01:27:50;6.90;99.90
10873;DHT22;34586;53.616;10.032;2024-03-29T01:30:16;6.90;99.90
10873;DHT22;34586;53.616;10.032;2024-03-29T01:32:41;6.80;99.90
10873;DHT22;34586;53.616;10.032;2024-03-29T01:35:07;6.80;99.90
10873;DHT22;34586;53.616;10.032;2024-03-29T01:37:33;6.80;99.90
10873;DHT22;34586;53.616;10.032;2024-03-29T01:39:59;6.90;99.90
10873;DHT22;34586;53.616;10.032;2024-03-29T01:42:25;6.80;99.90
10873;DHT22;34586;53.616;10.032;2024-03-29T01:44:50;6.80;99.90
10873;DHT22;34586;53.616;10.032;2024-03-29T01:47:17;6.80;99.90
10873;DHT22;34586;53.616;10.032;2024-03-29T01:49:44;6.80;99.90
10873;DHT22;34586;53.616;10.032;2024-03-29T01:52:12;6.80;99.90
10873;DHT22;34586;53.616;10.032;2024-03-29T01:54:38;6.80;99.90
10873;DHT22;34586;53.616;10.032;2024-03-29T01:57:04;6.80;99.90
10873;DHT22;34586;53.616;10.032;2024-03-29T01:59:31;6.70;99.90
10873;DHT22;34586;53.616;10.032;2024-03-29T02:01:58;6.80;99.90
10873;DHT22;34586;53.616;10.032;2024-03-29T02:04:24;6.70;99.90
10873;DHT22;34586;53.616;10.032;2024-03-29T02:06:50;6.70;99.90
10873;DHT22;34586;53.616;10.032;2024-03-29T02:09:16;6.70;99.90
10873;DHT22;34586;53.616;10.032;2024-03-29T02:11:41;6.70;99.90
10873;DHT22;34586;53.616;10.032;2024-03-29T02:14:07;6.70;99.90
10873;DHT22;34586;53.616;10.032;2024-03-29T02:16:32;6.70;99.90
10873;DHT22;34586;53.616;10.032;2024-03-29T02:18:58;6.70;99.90
10873;DHT22;34586;53.616;10.032;2024-03-29T02:21:24;6.80;99.90
10873;DHT22;34586;53.616;10.032;2024-03-29T02:24:06;6.80;99.90
10873;DHT22;34586;53.616;10.032;2024-03-29T02:26:33;6.70;99.90
10873;DHT22;34586;53.616;10.032;2024-03-29T02:29:04;6.70;99.90
10873;DHT22;34586;53.616;10.032;2024-03-29T02:31:30;6.70;99.90
10873;DHT22;34586;53.616;10.032;2024-03-29T02:33:55;6.70;99.90
10873;DHT22;34586;53.616;10.032;2024-03-29T02:36:21;6.70;99.90
10873;DHT22;34586;53.616;10.032;2024-03-29T02:38:47;6.70;99.90
10873;DHT22;34586;53.616;10.032;2024-03-29T02:41:12;6.70;99.90
10873;DHT22;34586;53.616;10.032;2024-03-29T02:43:38;6.70;99.90
10873;DHT22;34586;53.616;10.032;2024-03-29T02:46:03;6.60;99.90
10873;DHT22;34586;53.616;10.032;2024-03-29T02:48:29;6.60;99.90
10873;DHT22;34586;53.616;10.032;2024-03-29T02:50:55;6.70;99.90
10873;DHT22;34586;53.616;10.032;2024-03-29T02:53:20;6.60;99.90
10873;DHT22;34586;53.616;10.032;2024-03-29T02:55:46;6.60;99.90
10873;DHT22;34586;53.616;10.032;2024-03-29T02:58:11;6.60;99.90
10873;DHT22;34586;53.616;10.032;2024-03-29T03:00:37;6.70;99.90
10873;DHT22;34586;53.616;10.032;2024-03-29T03:03:15;6.60;99.90
10873;DHT22;34586;53.616;10.032;2024-03-29T03:05:41;6.50;99.90
10873;DHT22;34586;53.616;10.032;2024-03-29T03:08:06;6.50;99.90
10873;DHT22;34586;53.616;10.032;2024-03-29T03:10:51;6.50;99.90
10873;DHT22;34586;53.616;10.032;2024-03-29T03:13:28;6.50;99.90
10873;DHT22;34586;53.616;10.032;2024-03-29T03:15:54;6.50;99.90
10873;DHT22;34586;53.616;10.032;2024-03-29T03:18:21;6.40;99.90
10873;DHT22;34586;53.616;10.032;2024-03-29T03:20:53;6.40;99.90
10873;DHT22;34586;53.616;10.032;2024-03-29T03:23:20;6.40;99.90
10873;DHT22;34586;53.616;10.032;2024-03-29T03:25:53;6.30;99.90
10873;DHT22;34586;53.616;10.032;2024-03-29T03:28:19;6.30;99.90
10873;DHT22;34586;53.616;10.032;2024-03-29T03:30:45;6.30;99.90
10873;DHT22;34586;53.616;10.032;2024-03-29T03:33:10;6.30;99.90
10873;DHT22;34586;53.616;10.032;2024-03-29T03:35:36;6.30;99.90
10873;DHT22;34586;53.616;10.032;2024-03-29T03:38:01;6.30;99.90
10873;DHT22;34586;53.616;10.032;2024-03-29T03:40:27;6.30;99.90
10873;DHT22;34586;53.616;10.032;2024-03-29T03:42:53;6.30;99.90
10873;DHT22;34586;53.616;10.032;2024-03-29T03:45:18;6.20;99.90
10873;DHT22;34586;53.616;10.032;2024-03-29T03:47:44;6.20;99.90
10873;DHT22;34586;53.616;10.032;2024-03-29T03:50:09;6.20;99.90
10873;DHT22;34586;53.616;10.032;2024-03-29T03:52:35;6.20;99.90
10873;DHT22;34586;53.616;10.032;2024-03-29T03:55:01;6.20;99.90
10873;DHT22;34586;53.616;10.032;2024-03-29T03:57:26;6.20;99.90
10873;DHT22;34586;53.616;10.032;2024-03-29T03:59:52;6.10;99.90
10873;DHT22;34586;53.616;10.032;2024-03-29T04:02:17;6.10;99.90
10873;DHT22;34586;53.616;10.032;2024-03-29T04:04:47;6.10;99.90
10873;DHT22;34586;53.616;10.032;2024-03-29T04:07:12;6.10;99.90
10873;DHT22;34586;53.616;10.032;2024-03-29T04:09:38;6.10;99.90
10873;DHT22;34586;53.616;10.032;2024-03-29T04:12:04;6.10;99.90
10873;DHT22;34586;53.616;10.032;2024-03-29T04:14:29;6.10;99.90
10873;DHT22;34586;53.616;10.032;2024-03-29T04:16:55;6.10;99.90
10873;DHT22;34586;53.616;10.032;2024-03-29T04:19:21;6.10;99.90
10873;DHT22;34586;53.616;10.032;2024-03-29T04:21:46;6.20;99.90
10873;DHT22;34586;53.616;10.032;2024-03-29T04:24:12;6.20;99.90
10873;DHT22;34586;53.616;10.032;2024-03-29T04:26:37;6.20;99.90
10873;DHT22;34586;53.616;10.032;2024-03-29T04:29:04;6.20;99.90
10873;DHT22;34586;53.616;10.032;2024-03-29T04:31:29;6.10;99.90
10873;DHT22;34586;53.616;10.032;2024-03-29T04:33:55;6.20;99.90
10873;DHT22;34586;53.616;10.032;2024-03-29T04:36:21;6.20;99.90
10873;DHT22;34586;53.616;10.032;2024-03-29T04:38:46;6.30;99.90
10873;DHT22;34586;53.616;10.032;2024-03-29T04:41:12;6.30;99.90
10873;DHT22;34586;53.616;10.032;2024-03-29T04:43:39;6.30;99.90
10873;DHT22;34586;53.616;10.032;2024-03-29T04:46:10;6.30;99.90
10873;DHT22;34586;53.616;10.032;2024-03-29T04:48:40;6.20;99.90
10873;DHT22;34586;53.616;10.032;2024-03-29T04:51:11;6.30;99.90
10873;DHT22;34586;53.616;10.032;2024-03-29T04:53:37;6.30;99.90
10873;DHT22;34586;53.616;10.032;2024-03-29T04:56:04;6.30;99.90
10873;DHT22;34586;53.616;10.032;2024-03-29T04:58:30;6.30;99.90
10873;DHT22;34586;53.616;10.032;2024-03-29T05:00:55;6.30;99.90
10873;DHT22;34586;53.616;10.032;2024-03-29T05:03:22;6.30;99.90
10873;DHT22;34586;53.616;10.032;2024-03-29T05:05:49;6.40;99.90
10873;DHT22;34586;53.616;10.032;2024-03-29T05:08:15;6.40;99.90
10873;DHT22;34586;53.616;10.032;2024-03-29T05:10:41;6.40;99.90
10873;DHT22;34586;53.616;10.032;2024-03-29T05:13:07;6.40;99.90
10873;DHT22;34586;53.616;10.032;2024-03-29T05:15:33;6.50;99.90
10873;DHT22;34586;53.616;10.032;2024-03-29T05:17:59;6.50;99.90
10873;DHT22;34586;53.616;10.032;2024-03-29T05:20:24;6.50;99.90
10873;DHT22;34586;53.616;10.032;2024-03-29T05:22:50;6.50;99.90
10873;DHT22;34586;53.616;10.032;2024-03-29T05:25:16;6.50;99.90
10873;DHT22;34586;53.616;10.032;2024-03-29T05:27:41;6.60;99.90
10873;DHT22;34586;53.616;10.032;2024-03-29T05:30:07;6.60;99.90
10873;DHT22;34586;53.616;10.032;2024-03-29T05:32:35;6.60;99.90
10873;DHT22;34586;53.616;10.032;2024-03-29T05:35:01;6.70;99.90
10873;DHT22;34586;53.616;10.032;2024-03-29T05:37:26;6.70;99.90
10873;DHT22;34586;53.616;10.032;2024-03-29T05:39:52;6.80;99.90
10873;DHT22;34586;53.616;10.032;2024-03-29T05:42:28;6.80;99.90
10873;DHT22;34586;53.616;10.032;2024-03-29T05:44:54;6.80;99.90
10873;DHT22;34586;53.616;10.032;2024-03-29T05:47:20;6.80;99.90
10873;DHT22;34586;53.616;10.032;2024-03-29T05:49:46;6.90;99.90
10873;DHT22;34586;53.616;10.032;2024-03-29T05:52:12;6.90;99.90
10873;DHT22;34586;53.616;10.032;2024-03-29T05:54:41;7.00;99.90
10873;DHT22;34586;53.616;10.032;2024-03-29T05:57:07;7.00;99.90
10873;DHT22;34586;53.616;10.032;2024-03-29T05:59:34;7.00;99.90
10873;DHT22;34586;53.616;10.032;2024-03-29T06:01:59;7.00;99.90
10873;DHT22;34586;53.616;10.032;2024-03-29T06:04:26;7.10;99.90
10873;DHT22;34586;53.616;10.032;2024-03-29T06:07:02;7.20;99.90
10873;DHT22;34586;53.616;10.032;2024-03-29T06:09:28;7.20;99.90
10873;DHT22;34586;53.616;10.032;2024-03-29T06:11:57;7.20;99.90
10873;DHT22;34586;53.616;10.032;2024-03-29T06:14:23;7.30;99.90
10873;DHT22;34586;53.616;10.032;2024-03-29T06:17:08;7.30;99.90
10873;DHT22;34586;53.616;10.032;2024-03-29T06:19:49;7.30;99.90
10873;DHT22;34586;53.616;10.032;2024-03-29T06:22:16;7.40;99.90
10873;DHT22;34586;53.616;10.032;2024-03-29T06:24:42;7.50;99.90
10873;DHT22;34586;53.616;10.032;2024-03-29T06:27:09;7.50;99.90
10873;DHT22;34586;53.616;10.032;2024-03-29T06:29:35;7.50;99.90
10873;DHT22;34586;53.616;10.032;2024-03-29T06:32:01;7.70;99.90
10873;DHT22;34586;53.616;10.032;2024-03-29T06:34:30;7.60;99.90
10873;DHT22;34586;53.616;10.032;2024-03-29T06:36:56;7.60;99.90
10873;DHT22;34586;53.616;10.032;2024-03-29T06:39:22;7.70;99.90
10873;DHT22;34586;53.616;10.032;2024-03-29T06:41:48;7.70;99.90
10873;DHT22;34586;53.616;10.032;2024-03-29T06:44:13;7.70;99.90
10873;DHT22;34586;53.616;10.032;2024-03-29T06:46:39;7.80;99.90
10873;DHT22;34586;53.616;10.032;2024-03-29T06:49:04;7.80;99.90
10873;DHT22;34586;53.616;10.032;2024-03-29T06:51:30;7.80;99.90
10873;DHT22;34586;53.616;10.032;2024-03-29T06:53:56;7.80;99.90
10873;DHT22;34586;53.616;10.032;2024-03-29T06:56:22;7.90;99.90
10873;DHT22;34586;53.616;10.032;2024-03-29T06:58:47;7.90;99.90
10873;DHT22;34586;53.616;10.032;2024-03-29T07:01:13;8.00;99.90
10873;DHT22;34586;53.616;10.032;2024-03-29T07:03:40;8.00;99.90
10873;DHT22;34586;53.616;10.032;2024-03-29T07:06:06;8.10;99.90
10873;DHT22;34586;53.616;10.032;2024-03-29T07:08:31;8.10;99.90
10873;DHT22;34586;53.616;10.032;2024-03-29T07:11:01;8.10;99.90
10873;DHT22;34586;53.616;10.032;2024-03-29T07:13:30;8.20;99.90
10873;DHT22;34586;53.616;10.032;2024-03-29T07:15:59;8.30;99.90
10873;DHT22;34586;53.616;10.032;2024-03-29T07:18:25;8.30;99.90
10873;DHT22;34586;53.616;10.032;2024-03-29T07:20:51;8.40;99.90
10873;DHT22;34586;53.616;10.032;2024-03-29T07:23:16;8.40;99.90
10873;DHT22;34586;53.616;10.032;2024-03-29T07:25:45;8.40;99.90
10873;DHT22;34586;53.616;10.032;2024-03-29T07:28:14;8.50;99.90
10873;DHT22;34586;53.616;10.032;2024-03-29T07:30:41;8.60;99.90
10873;DHT22;34586;53.616;10.032;2024-03-29T07:33:06;8.70;99.90
10873;DHT22;34586;53.616;10.032;2024-03-29T07:35:34;8.70;65.10
10873;DHT22;34586;53.616;10.032;2024-03-29T07:38:00;8.90;44.20
10873;DHT22;34586;53.616;10.032;2024-03-29T07:40:25;9.00;28.50
10873;DHT22;34586;53.616;10.032;2024-03-29T07:42:51;9.00;38.40
10873;DHT22;34586;53.616;10.032;2024-03-29T07:45:16;9.00;5.10
10873;DHT22;34586;53.616;10.032;2024-03-29T07:47:42;9.00;1.00
10873;DHT22;34586;53.616;10.032;2024-03-29T07:50:08;9.10;1.00
10873;DHT22;34586;53.616;10.032;2024-03-29T07:52:35;9.20;1.00
10873;DHT22;34586;53.616;10.032;2024-03-29T07:55:01;9.30;1.00
10873;DHT22;34586;53.616;10.032;2024-03-29T07:57:26;9.30;1.00
10873;DHT22;34586;53.616;10.032;2024-03-29T07:59:52;9.30;1.00
10873;DHT22;34586;53.616;10.032;2024-03-29T08:02:17;9.40;71.50
10873;DHT22;34586;53.616;10.032;2024-03-29T08:04:43;9.40;73.20
10873;DHT22;34586;53.616;10.032;2024-03-29T08:07:10;9.50;51.10
10873;DHT22;34586;53.616;10.032;2024-03-29T08:09:37;9.60;40.90
10873;DHT22;34586;53.616;10.032;2024-03-29T08:12:05;9.60;35.10
10873;DHT22;34586;53.616;10.032;2024-03-29T08:14:30;9.60;10.40
10873;DHT22;34586;53.616;10.032;2024-03-29T08:16:56;9.60;18.90
10873;DHT22;34586;53.616;10.032;2024-03-29T08:19:21;9.60;22.30
10873;DHT22;34586;53.616;10.032;2024-03-29T08:21:47;9.70;1.00
10873;DHT22;34586;53.616;10.032;2024-03-29T08:24:13;9.70;26.30
10873;DHT22;34586;53.616;10.032;2024-03-29T08:26:38;9.80;23.40
10873;DHT22;34586;53.616;10.032;2024-03-29T08:29:04;9.70;1.00
10873;DHT22;34586;53.616;10.032;2024-03-29T08:31:30;9.70;26.10
10873;DHT22;34586;53.616;10.032;2024-03-29T08:33:56;9.70;59.40
10873;DHT22;34586;53.616;10.032;2024-03-29T08:36:21;10.00;1.00
10873;DHT22;34586;53.616;10.032;2024-03-29T08:38:47;9.80;47.70
10873;DHT22;34586;53.616;10.032;2024-03-29T08:41:13;9.60;27.90
10873;DHT22;34586;53.616;10.032;2024-03-29T08:43:38;9.70;67.80
10873;DHT22;34586;53.616;10.032;2024-03-29T08:46:04;9.70;85.30
10873;DHT22;34586;53.616;10.032;2024-03-29T08:48:30;9.80;99.90
10873;DHT22;34586;53.616;10.032;2024-03-29T08:50:55;9.80;92.60
10873;DHT22;34586;53.616;10.032;2024-03-29T08:53:21;10.00;82.60
10873;DHT22;34586;53.616;10.032;2024-03-29T08:55:47;10.10;52.20
10873;DHT22;34586;53.616;10.032;2024-03-29T08:58:15;10.10;99.90
10873;DHT22;34586;53.616;10.032;2024-03-29T09:00:41;10.20;91.30
10873;DHT22;34586;53.616;10.032;2024-03-29T09:03:07;10.40;97.40
10873;DHT22;34586;53.616;10.032;2024-03-29T09:05:32;10.50;99.90
10873;DHT22;34586;53.616;10.032;2024-03-29T09:07:58;10.70;99.90
10873;DHT22;34586;53.616;10.032;2024-03-29T09:10:25;10.90;80.10
10873;DHT22;34586;53.616;10.032;2024-03-29T09:12:52;11.00;98.30
10873;DHT22;34586;53.616;10.032;2024-03-29T09:15:18;11.10;90.80
10873;DHT22;34586;53.616;10.032;2024-03-29T09:17:44;11.10;77.20
10873;DHT22;34586;53.616;10.032;2024-03-29T09:20:11;11.10;87.20
10873;DHT22;34586;53.616;10.032;2024-03-29T09:22:37;11.20;25.30
10873;DHT22;34586;53.616;10.032;2024-03-29T09:25:04;11.30;81.90
10873;DHT22;34586;53.616;10.032;2024-03-29T09:27:29;11.40;31.40
10873;DHT22;34586;53.616;10.032;2024-03-29T09:29:55;11.40;33.10
10873;DHT22;34586;53.616;10.032;2024-03-29T09:32:24;11.40;64.50
10873;DHT22;34586;53.616;10.032;2024-03-29T09:34:49;11.30;31.40
10873;DHT22;34586;53.616;10.032;2024-03-29T09:37:15;11.30;47.00
10873;DHT22;34586;53.616;10.032;2024-03-29T09:39:41;11.20;51.90
10873;DHT22;34586;53.616;10.032;2024-03-29T09:42:06;11.20;25.90
10873;DHT22;34586;53.616;10.032;2024-03-29T09:44:35;11.10;96.80
10873;DHT22;34586;53.616;10.032;2024-03-29T09:47:03;10.90;82.80
10873;DHT22;34586;53.616;10.032;2024-03-29T09:49:32;10.90;94.00
10873;DHT22;34586;53.616;10.032;2024-03-29T09:52:01;10.70;99.90
10873;DHT22;34586;53.616;10.032;2024-03-29T09:54:30;10.60;99.90
10873;DHT22;34586;53.616;10.032;2024-03-29T09:56:59;10.50;99.90
10873;DHT22;34586;53.616;10.032;2024-03-29T09:59:25;10.50;99.90
10873;DHT22;34586;53.616;10.032;2024-03-29T10:01:54;10.60;99.90
10873;DHT22;34586;53.616;10.032;2024-03-29T10:04:21;10.60;99.90
10873;DHT22;34586;53.616;10.032;2024-03-29T10:06:48;10.60;99.90
10873;DHT22;34586;53.616;10.032;2024-03-29T10:09:18;10.50;99.90
10873;DHT22;34586;53.616;10.032;2024-03-29T10:11:44;10.40;99.90
10873;DHT22;34586;53.616;10.032;2024-03-29T10:14:10;10.40;99.90
10873;DHT22;34586;53.616;10.032;2024-03-29T10:16:36;10.40;99.90
10873;DHT22;34586;53.616;10.032;2024-03-29T10:19:01;10.40;99.90
10873;DHT22;34586;53.616;10.032;2024-03-29T10:21:27;10.40;99.90
10873;DHT22;34586;53.616;10.032;2024-03-29T10:23:53;10.50;99.90
10873;DHT22;34586;53.616;10.032;2024-03-29T10:26:19;10.50;99.90
10873;DHT22;34586;53.616;10.032;2024-03-29T10:28:46;10.40;99.90
10873;DHT22;34586;53.616;10.032;2024-03-29T10:31:12;10.40;99.90
10873;DHT22;34586;53.616;10.032;2024-03-29T10:33:41;10.40;99.90
10873;DHT22;34586;53.616;10.032;2024-03-29T10:36:07;10.40;99.90
10873;DHT22;34586;53.616;10.032;2024-03-29T10:38:35;10.50;99.90
10873;DHT22;34586;53.616;10.032;2024-03-29T10:41:01;10.60;99.90
10873;DHT22;34586;53.616;10.032;2024-03-29T10:43:29;10.60;99.90
10873;DHT22;34586;53.616;10.032;2024-03-29T10:45:56;10.70;99.90
10873;DHT22;34586;53.616;10.032;2024-03-29T10:48:26;10.60;99.90
10873;DHT22;34586;53.616;10.032;2024-03-29T10:50:55;10.50;99.90
10873;DHT22;34586;53.616;10.032;2024-03-29T10:53:27;10.50;99.90
10873;DHT22;34586;53.616;10.032;2024-03-29T10:55:59;10.50;99.90
10873;DHT22;34586;53.616;10.032;2024-03-29T10:58:30;10.50;99.90
10873;DHT22;34586;53.616;10.032;2024-03-29T11:01:01;10.40;99.90
10873;DHT22;34586;53.616;10.032;2024-03-29T11:03:40;10.40;99.90
10873;DHT22;34586;53.616;10.032;2024-03-29T11:06:12;10.40;99.90
10873;DHT22;34586;53.616;10.032;2024-03-29T11:08:39;10.40;99.90
10873;DHT22;34586;53.616;10.032;2024-03-29T11:11:12;10.40;99.90
10873;DHT22;34586;53.616;10.032;2024-03-29T11:13:57;10.40;99.90
10873;DHT22;34586;53.616;10.032;2024-03-29T11:16:25;10.40;99.90
10873;DHT22;34586;53.616;10.032;2024-03-29T11:18:51;10.40;99.90
10873;DHT22;34586;53.616;10.032;2024-03-29T11:21:18;10.40;99.90
10873;DHT22;34586;53.616;10.032;2024-03-29T11:23:53;10.40;99.90
10873;DHT22;34586;53.616;10.032;2024-03-29T11:26:19;10.60;99.90
10873;DHT22;34586;53.616;10.032;2024-03-29T11:28:49;10.60;99.90
10873;DHT22;34586;53.616;10.032;2024-03-29T11:31:15;10.70;99.90
10873;DHT22;34586;53.616;10.032;2024-03-29T11:36:13;10.70;99.90
10873;DHT22;34586;53.616;10.032;2024-03-29T11:38:39;10.70;99.90
10873;DHT22;34586;53.616;10.032;2024-03-29T11:43:35;10.90;99.90
10873;DHT22;34586;53.616;10.032;2024-03-29T11:46:02;11.00;99.90
10873;DHT22;34586;53.616;10.032;2024-03-29T11:48:29;11.00;99.90
10873;DHT22;34586;53.616;10.032;2024-03-29T11:50:56;11.10;99.90
10873;DHT22;34586;53.616;10.032;2024-03-29T11:53:22;11.10;99.90
10873;DHT22;34586;53.616;10.032;2024-03-29T11:55:48;11.20;99.90
10873;DHT22;34586;53.616;10.032;2024-03-29T11:58:28;11.30;99.90
10873;DHT22;34586;53.616;10.032;2024-03-29T12:00:54;11.30;99.90
10873;DHT22;34586;53.616;10.032;2024-03-29T12:03:22;11.40;99.90
10873;DHT22;34586;53.616;10.032;2024-03-29T12:05:49;11.50;99.90
10873;DHT22;34586;53.616;10.032;2024-03-29T12:08:24;11.70;99.90
10873;DHT22;34586;53.616;10.032;2024-03-29T12:10:50;11.90;99.90
10873;DHT22;34586;53.616;10.032;2024-03-29T12:13:16;11.90;99.90
10873;DHT22;34586;53.616;10.032;2024-03-29T12:15:43;12.00;99.90
10873;DHT22;34586;53.616;10.032;2024-03-29T12:18:09;12.20;99.90
10873;DHT22;34586;53.616;10.032;2024-03-29T12:20:35;12.40;99.90
10873;DHT22;34586;53.616;10.032;2024-03-29T12:23:08;12.50;78.50
10873;DHT22;34586;53.616;10.032;2024-03-29T12:25:36;12.60;97.10
10873;DHT22;34586;53.616;10.032;2024-03-29T12:28:02;12.70;4.10
10873;DHT22;34586;53.616;10.032;2024-03-29T12:30:28;12.50;38.00
10873;DHT22;34586;53.616;10.032;2024-03-29T12:33:07;12.60;1.00
10873;DHT22;34586;53.616;10.032;2024-03-29T12:35:34;12.50;48.20
10873;DHT22;34586;53.616;10.032;2024-03-29T12:38:01;12.50;67.40
10873;DHT22;34586;53.616;10.032;2024-03-29T12:40:29;12.60;50.90
10873;DHT22;34586;53.616;10.032;2024-03-29T12:42:57;12.60;47.90
10873;DHT22;34586;53.616;10.032;2024-03-29T12:45:24;12.50;50.10
10873;DHT22;34586;53.616;10.032;2024-03-29T12:47:50;12.50;69.60
10873;DHT22;34586;53.616;10.032;2024-03-29T12:50:29;12.70;37.20
10873;DHT22;34586;53.616;10.032;2024-03-29T12:52:59;12.70;22.00
10873;DHT22;34586;53.616;10.032;2024-03-29T12:55:28;12.60;70.80
10873;DHT22;34586;53.616;10.032;2024-03-29T12:57:56;12.90;62.00
10873;DHT22;34586;53.616;10.032;2024-03-29T13:00:22;12.80;77.90
10873;DHT22;34586;53.616;10.032;2024-03-29T13:02:48;13.00;41.50
10873;DHT22;34586;53.616;10.032;2024-03-29T13:05:14;13.10;96.40
10873;DHT22;34586;53.616;10.032;2024-03-29T13:07:40;13.30;24.90
10873;DHT22;34586;53.616;10.032;2024-03-29T13:10:06;13.60;2.70
10873;DHT22;34586;53.616;10.032;2024-03-29T13:12:41;13.80;1.00
10873;DHT22;34586;53.616;10.032;2024-03-29T13:15:33;13.80;1.00
10873;DHT22;34586;53.616;10.032;2024-03-29T13:17:58;13.60;1.00
10873;DHT22;34586;53.616;10.032;2024-03-29T13:20:25;13.60;99.90
10873;DHT22;34586;53.616;10.032;2024-03-29T13:22:51;13.50;99.90
10873;DHT22;34586;53.616;10.032;2024-03-29T13:25:18;13.30;1.00
10873;DHT22;34586;53.616;10.032;2024-03-29T13:27:46;13.30;1.00
10873;DHT22;34586;53.616;10.032;2024-03-29T13:30:13;13.40;1.00
10873;DHT22;34586;53.616;10.032;2024-03-29T13:32:42;13.30;1.00
10873;DHT22;34586;53.616;10.032;2024-03-29T13:35:10;13.40;1.00
10873;DHT22;34586;53.616;10.032;2024-03-29T13:37:39;13.40;1.00
10873;DHT22;34586;53.616;10.032;2024-03-29T13:40:07;13.50;1.00
10873;DHT22;34586;53.616;10.032;2024-03-29T13:42:34;13.60;1.00
10873;DHT22;34586;53.616;10.032;2024-03-29T13:44:59;13.60;1.00
10873;DHT22;34586;53.616;10.032;2024-03-29T13:47:25;13.60;1.00
10873;DHT22;34586;53.616;10.032;2024-03-29T13:49:51;13.50;1.00
10873;DHT22;34586;53.616;10.032;2024-03-29T13:52:19;13.60;1.00
10873;DHT22;34586;53.616;10.032;2024-03-29T13:54:45;13.50;1.00
10873;DHT22;34586;53.616;10.032;2024-03-29T13:57:14;13.50;1.00
10873;DHT22;34586;53.616;10.032;2024-03-29T13:59:40;13.30;1.00
10873;DHT22;34586;53.616;10.032;2024-03-29T14:02:09;13.20;1.00
10873;DHT22;34586;53.616;10.032;2024-03-29T14:04:35;13.00;1.00
10873;DHT22;34586;53.616;10.032;2024-03-29T14:07:01;13.10;1.00
10873;DHT22;34586;53.616;10.032;2024-03-29T14:09:28;13.10;1.00
10873;DHT22;34586;53.616;10.032;2024-03-29T14:11:54;13.10;3.20
10873;DHT22;34586;53.616;10.032;2024-03-29T14:14:20;13.30;1.00
10873;DHT22;34586;53.616;10.032;2024-03-29T14:16:45;13.30;1.00
10873;DHT22;34586;53.616;10.032;2024-03-29T14:19:11;13.40;1.00
10873;DHT22;34586;53.616;10.032;2024-03-29T14:21:36;13.40;1.00
10873;DHT22;34586;53.616;10.032;2024-03-29T14:24:02;13.30;1.00
10873;DHT22;34586;53.616;10.032;2024-03-29T14:26:27;13.10;1.00
10873;DHT22;34586;53.616;10.032;2024-03-29T14:28:53;13.00;29.40
10873;DHT22;34586;53.616;10.032;2024-03-29T14:31:19;13.00;66.10
10873;DHT22;34586;53.616;10.032;2024-03-29T14:33:45;13.10;42.40
10873;DHT22;34586;53.616;10.032;2024-03-29T14:36:12;13.20;40.40
10873;DHT22;34586;53.616;10.032;2024-03-29T14:38:37;13.30;41.60
10873;DHT22;34586;53.616;10.032;2024-03-29T14:41:03;13.90;1.00
10873;DHT22;34586;53.616;10.032;2024-03-29T14:43:29;14.10;1.00
10873;DHT22;34586;53.616;10.032;2024-03-29T14:45:55;14.40;1.00
10873;DHT22;34586;53.616;10.032;2024-03-29T14:48:20;14.70;1.00
10873;DHT22;34586;53.616;10.032;2024-03-29T14:50:46;14.90;47.40
10873;DHT22;34586;53.616;10.032;2024-03-29T14:53:12;14.90;99.90
10873;DHT22;34586;53.616;10.032;2024-03-29T14:55:38;14.90;99.90
10873;DHT22;34586;53.616;10.032;2024-03-29T14:58:05;14.90;99.90
10873;DHT22;34586;53.616;10.032;2024-03-29T15:00:31;15.20;99.90
10873;DHT22;34586;53.616;10.032;2024-03-29T15:02:57;15.50;99.90
10873;DHT22;34586;53.616;10.032;2024-03-29T15:05:22;15.90;92.90
10873;DHT22;34586;53.616;10.032;2024-03-29T15:07:51;15.90;75.40
10873;DHT22;34586;53.616;10.032;2024-03-29T15:10:17;15.60;99.90
10873;DHT22;34586;53.616;10.032;2024-03-29T15:12:59;15.40;53.40
10873;DHT22;34586;53.616;10.032;2024-03-29T15:15:25;15.40;32.40
10873;DHT22;34586;53.616;10.032;2024-03-29T15:17:51;15.60;1.00
10873;DHT22;34586;53.616;10.032;2024-03-29T15:20:17;15.90;43.50
10873;DHT22;34586;53.616;10.032;2024-03-29T15:22:43;16.10;3.40
10873;DHT22;34586;53.616;10.032;2024-03-29T15:25:15;16.20;1.00
10873;DHT22;34586;53.616;10.032;2024-03-29T15:27:41;16.20;1.00
10873;DHT22;34586;53.616;10.032;2024-03-29T15:30:27;16.00;1.00